Time;durP1;ratioP1;P1;durP2;ratioP2;P2;SDS_P1;SDS_P2;PMS_P1;PMS_P2;Temp;Humidity;BMP_temperature;BMP_pressure;BME280_temperature;BME280_humidity;BME280_pressure;Samples;Min_cycle;Max_cycle;Signal;HPM_P1;HPM_P2
2022/01/16 00:06:18;;;;;;;15.20;8.30;;;;;;;2.86;nan;-23896.00;5052319;28;20285;-77
2022/01/16 00:08:44;;;;;;;15.20;8.83;;;;;;;2.72;nan;-23892.03;5052109;28;20560;-76
2022/01/16 00:11:11;;;;;;;15.10;9.13;;;;;;;2.95;nan;-23898.44;5052148;28;20175;-76
2022/01/16 00:13:36;;;;;;;16.20;9.17;;;;;;;2.60;nan;-23888.72;5031014;28;20188;-77
2022/01/16 00:16:02;;;;;;;14.73;8.70;;;;;;;2.53;nan;-23886.59;5030156;28;20344;-73
2022/01/16 00:18:39;;;;;;;15.43;9.00;;;;;;;2.58;nan;-23888.16;5034301;28;20186;-77
2022/01/16 00:21:05;;;;;;;15.93;9.10;;;;;;;2.24;nan;-23878.47;5052072;28;20162;-77
2022/01/16 00:23:30;;;;;;;17.20;9.03;;;;;;;2.30;nan;-23880.03;5052099;28;20224;-75
2022/01/16 00:25:56;;;;;;;15.40;9.33;;;;;;;2.31;nan;-23880.47;5049095;28;20240;-75
2022/01/16 00:28:23;;;;;;;14.67;9.07;;;;;;;2.74;nan;-23892.59;5045948;28;20340;-74
2022/01/16 00:30:49;;;;;;;16.17;9.30;;;;;;;2.67;nan;-23890.59;5033126;28;20610;-77
2022/01/16 00:33:15;;;;;;;15.30;9.50;;;;;;;2.11;nan;-23874.88;5032054;28;20285;-76
2022/01/16 00:35:41;;;;;;;16.83;9.20;;;;;;;2.12;nan;-23875.03;5050841;28;20273;-75
2022/01/16 00:38:07;;;;;;;15.90;9.10;;;;;;;2.13;nan;-23875.47;5051292;28;20228;-77
2022/01/16 00:40:33;;;;;;;14.77;9.20;;;;;;;2.57;nan;-23887.88;5050855;28;20170;-77
2022/01/16 00:42:58;;;;;;;18.00;9.13;;;;;;;2.45;nan;-23884.31;5044752;28;20193;-75
2022/01/16 00:45:25;;;;;;;12.97;8.80;;;;;;;1.98;nan;-23871.03;5051493;28;20194;-75
2022/01/16 00:47:50;;;;;;;15.13;9.17;;;;;;;1.88;nan;-23868.16;5032937;28;20186;-75
2022/01/16 00:50:16;;;;;;;14.10;8.70;;;;;;;2.04;nan;-23872.75;5044332;28;20218;-74
2022/01/16 00:52:41;;;;;;;14.23;8.10;;;;;;;2.21;nan;-23877.75;5051182;28;20250;-76
2022/01/16 00:55:07;;;;;;;15.07;8.60;;;;;;;2.31;nan;-23880.31;5051001;28;20182;-76
2022/01/16 00:57:32;;;;;;;15.93;9.13;;;;;;;2.27;nan;-23879.31;5049170;28;20240;-75
2022/01/16 00:59:58;;;;;;;15.37;8.90;;;;;;;1.78;nan;-23865.59;5046572;28;20186;-77
2022/01/16 01:02:24;;;;;;;16.43;9.27;;;;;;;2.27;nan;-23879.31;5043294;28;20683;-78
2022/01/16 01:04:49;;;;;;;15.37;9.10;;;;;;;1.94;nan;-23870.03;5046120;28;20186;-77
2022/01/16 01:07:16;;;;;;;14.27;8.03;;;;;;;2.41;nan;-23883.31;5050890;28;20268;-76
2022/01/16 01:09:41;;;;;;;14.30;8.50;;;;;;;2.22;nan;-23878.03;5045260;28;20646;-76
2022/01/16 01:12:09;;;;;;;14.10;8.37;;;;;;;2.08;nan;-23874.03;5046679;28;20177;-75
2022/01/16 01:14:52;;;;;;;15.43;8.50;;;;;;;2.47;nan;-23884.88;5055434;28;20171;-76
2022/01/16 01:17:23;;;;;;;13.40;7.80;;;;;;;2.86;nan;-23896.00;5055386;28;20562;-74
2022/01/16 01:19:49;;;;;;;15.90;8.47;;;;;;;2.38;nan;-23882.31;5054071;28;20195;-76
2022/01/16 01:22:14;;;;;;;13.87;8.33;;;;;;;2.15;nan;-23875.88;5055111;28;20175;-77
2022/01/16 01:24:40;;;;;;;14.23;7.97;;;;;;;2.56;nan;-23887.44;5055236;28;20737;-78
2022/01/16 01:27:17;;;;;;;13.33;7.60;;;;;;;2.49;nan;-23885.59;5048706;28;20179;-78
2022/01/16 01:29:48;;;;;;;14.57;8.37;;;;;;;2.74;nan;-23892.59;5039410;28;20186;-77
2022/01/16 01:32:14;;;;;;;13.90;7.70;;;;;;;2.63;nan;-23889.44;5037134;28;20340;-74
2022/01/16 01:34:39;;;;;;;12.33;7.27;;;;;;;2.30;nan;-23880.16;5055150;28;20250;-74
2022/01/16 01:37:05;;;;;;;12.93;7.90;;;;;;;2.36;nan;-23881.88;5036996;28;20213;-77
2022/01/16 01:39:30;;;;;;;14.77;7.50;;;;;;;2.95;nan;-23898.59;5054920;28;20171;-77
2022/01/16 01:42:05;;;;;;;13.93;7.70;;;;;;;2.58;nan;-23888.16;5055438;28;20186;-76
2022/01/16 01:52:43;;;;;;;13.73;7.60;;;;;;;2.76;nan;-23893.00;5045618;28;20805;-75
2022/01/16 01:55:08;;;;;;;13.70;7.63;;;;;;;2.66;nan;-23890.31;5053188;28;20281;-77
2022/01/16 01:57:34;;;;;;;13.87;7.40;;;;;;;2.77;nan;-23893.31;5054628;28;20206;-74
2022/01/16 01:59:59;;;;;;;13.97;7.90;;;;;;;2.58;nan;-23888.16;5036665;28;20182;-75
2022/01/16 02:02:29;;;;;;;12.83;7.73;;;;;;;2.20;nan;-23877.31;5028092;28;20240;-76
2022/01/16 02:04:54;;;;;;;12.40;7.50;;;;;;;2.30;nan;-23880.16;5050059;28;20186;-75
2022/01/16 02:07:19;;;;;;;12.73;7.20;;;;;;;2.29;nan;-23879.88;5036338;28;20328;-75
2022/01/16 02:09:45;;;;;;;12.83;7.50;;;;;;;2.33;nan;-23881.03;5054968;28;20186;-76
2022/01/16 02:12:10;;;;;;;12.90;6.97;;;;;;;2.35;nan;-23881.47;5036146;28;20206;-74
2022/01/16 02:14:54;;;;;;;13.47;7.27;;;;;;;2.32;nan;-23880.75;5054194;28;20324;-75
2022/01/16 02:36:23;;;;;;;12.63;7.60;;;;;;;1.96;nan;-23870.47;5054393;28;20722;-74
2022/01/16 02:38:49;;;;;;;13.83;8.03;;;;;;;1.55;nan;-23859.03;5054070;28;20210;-77
2022/01/16 02:41:15;;;;;;;15.00;8.43;;;;;;;1.93;nan;-23869.59;5035881;28;20642;-76
2022/01/16 02:43:46;;;;;;;15.37;8.20;;;;;;;1.78;nan;-23865.59;5047270;28;20192;-75
2022/01/16 02:48:42;;;;;;;17.60;8.97;;;;;;;2.07;nan;-23873.59;5053711;28;20193;-77
2022/01/16 02:51:07;;;;;;;16.43;9.00;;;;;;;1.96;nan;-23870.59;5053807;28;20224;-74
2022/01/16 02:53:32;;;;;;;18.03;8.57;;;;;;;1.92;nan;-23869.47;5053994;28;20693;-74
2022/01/16 02:56:00;;;;;;;17.90;8.90;;;;;;;1.74;nan;-23864.47;5053428;28;20206;-76
2022/01/16 02:58:25;;;;;;;16.83;8.50;;;;;;;1.86;nan;-23867.59;5053741;28;20554;-74
2022/01/16 03:00:51;;;;;;;14.10;8.47;;;;;;;2.04;nan;-23872.75;5035704;28;20170;-78
2022/01/16 03:03:16;;;;;;;16.10;8.53;;;;;;;1.61;nan;-23860.59;5035687;28;20178;-73
2022/01/16 03:05:41;;;;;;;15.00;8.63;;;;;;;1.68;nan;-23862.75;5035581;28;20186;-75
2022/01/16 03:08:07;;;;;;;14.73;8.40;;;;;;;1.83;nan;-23866.88;5035640;28;20177;-76
2022/01/16 03:11:08;;;;;;;16.37;8.87;;;;;;;1.65;nan;-23861.88;5053163;28;20182;-75
2022/01/16 03:13:33;;;;;;;14.93;8.90;;;;;;;1.84;nan;-23867.19;5035350;28;20223;-75
2022/01/16 03:15:59;;;;;;;16.80;9.07;;;;;;;1.58;nan;-23859.75;5053207;28;20240;-74
2022/01/16 03:23:34;;;;;;;13.67;7.73;;;;;;;1.60;nan;-23860.31;5053407;28;20285;-74
2022/01/16 03:26:00;;;;;;;12.10;7.43;;;;;;;1.97;nan;-23870.75;5035197;28;20296;-77
2022/01/16 03:28:27;;;;;;;14.67;8.07;;;;;;;2.02;nan;-23872.16;5051421;28;20193;-77
2022/01/16 03:30:55;;;;;;;14.60;8.23;;;;;;;1.99;nan;-23871.47;5035013;28;20186;-77
2022/01/16 03:33:21;;;;;;;13.87;8.03;;;;;;;1.78;nan;-23865.59;5052980;28;20182;-76
2022/01/16 03:35:49;;;;;;;14.23;8.57;;;;;;;1.92;nan;-23869.31;5052595;28;20802;-77
2022/01/16 03:38:15;;;;;;;14.90;8.17;;;;;;;1.84;nan;-23867.03;5052591;28;20182;-77
2022/01/16 03:40:41;;;;;;;11.87;7.43;;;;;;;1.40;nan;-23854.59;5053062;28;20181;-76
2022/01/16 03:43:14;;;;;;;15.33;8.17;;;;;;;1.57;nan;-23859.59;5053170;28;20184;-74
2022/01/16 03:45:46;;;;;;;14.63;8.13;;;;;;;1.38;nan;-23854.16;5052645;28;20162;-75
2022/01/16 03:48:14;;;;;;;15.00;8.40;;;;;;;1.51;nan;-23857.75;5052896;28;20319;-75
2022/01/16 03:50:39;;;;;;;16.07;8.40;;;;;;;1.62;nan;-23861.03;5052649;28;20228;-77
2022/01/16 03:53:05;;;;;;;17.83;7.77;;;;;;;1.84;nan;-23867.03;5034698;28;20331;-77
2022/01/16 03:55:32;;;;;;;14.73;7.73;;;;;;;1.45;nan;-23856.03;5052339;28;20638;-74
2022/01/16 03:57:58;;;;;;;14.83;8.10;;;;;;;1.83;nan;-23866.88;5052728;28;20179;-76
2022/01/16 04:00:24;;;;;;;15.20;7.93;;;;;;;1.58;nan;-23859.88;5033358;28;20195;-77
2022/01/16 04:02:50;;;;;;;12.33;7.60;;;;;;;1.18;nan;-23848.44;5045568;28;20188;-75
2022/01/16 04:05:15;;;;;;;12.23;7.13;;;;;;;1.51;nan;-23857.75;5033049;28;20188;-73
2022/01/16 04:07:40;;;;;;;12.37;7.33;;;;;;;1.10;nan;-23846.16;5051558;28;20184;-74
2022/01/16 04:10:08;;;;;;;13.70;7.30;;;;;;;1.69;nan;-23863.03;5051914;28;20193;-74
2022/01/16 04:12:35;;;;;;;14.13;7.73;;;;;;;1.18;nan;-23848.59;5051504;28;20178;-77
2022/01/16 04:17:27;;;;;;;11.97;6.80;;;;;;;0.99;nan;-23843.00;5051419;28;20205;-76
2022/01/16 04:19:53;;;;;;;11.70;6.77;;;;;;;1.19;nan;-23848.88;5051614;28;20572;-76
2022/01/16 04:22:20;;;;;;;13.90;7.00;;;;;;;1.24;nan;-23850.16;5033553;28;20177;-76
2022/01/16 04:24:46;;;;;;;11.87;6.73;;;;;;;1.65;nan;-23861.75;5051605;28;20260;-74
2022/01/16 04:27:12;;;;;;;11.97;6.63;;;;;;;1.39;nan;-23854.44;5051546;28;20248;-77
2022/01/16 04:29:39;;;;;;;13.80;6.50;;;;;;;1.36;nan;-23853.59;5051517;28;20193;-76
2022/01/16 04:32:05;;;;;;;9.90;6.47;;;;;;;1.36;nan;-23853.44;5033586;28;20748;-75
2022/01/16 04:34:31;;;;;;;12.73;6.80;;;;;;;1.37;nan;-23853.88;5051211;28;20184;-75
2022/01/16 04:36:56;;;;;;;12.57;6.80;;;;;;;1.54;nan;-23858.75;5050665;28;20262;-74
2022/01/16 04:39:30;;;;;;;14.13;7.30;;;;;;;1.59;nan;-23860.03;5033911;28;20186;-75
2022/01/16 04:44:39;;;;;;;13.67;7.37;;;;;;;1.20;nan;-23849.16;5051906;28;20207;-76
2022/01/16 04:47:05;;;;;;;13.73;7.43;;;;;;;1.02;nan;-23843.88;5051002;28;20185;-75
2022/01/16 04:49:30;;;;;;;13.27;7.77;;;;;;;0.35;nan;-23825.00;5033731;28;20655;-76
2022/01/16 04:51:55;;;;;;;17.50;8.40;;;;;;;1.07;nan;-23845.44;5033384;28;20746;-77
2022/01/16 04:54:21;;;;;;;11.73;7.23;;;;;;;0.68;nan;-23834.44;5052100;28;20178;-76
2022/01/16 04:56:46;;;;;;;14.17;7.60;;;;;;;0.86;nan;-23839.59;5051407;28;20553;-76
2022/01/16 04:59:12;;;;;;;13.93;7.37;;;;;;;0.96;nan;-23842.31;5051603;28;20665;-76
2022/01/16 05:01:37;;;;;;;12.50;7.33;;;;;;;0.86;nan;-23839.44;5051597;28;20170;-77
2022/01/16 05:04:03;;;;;;;13.13;7.50;;;;;;;0.43;nan;-23827.28;5051077;28;20179;-76
2022/01/16 05:06:28;;;;;;;13.97;7.37;;;;;;;0.15;nan;-23819.41;5033694;28;20271;-75
2022/01/16 05:08:53;;;;;;;14.57;8.20;;;;;;;0.62;nan;-23832.72;5051350;28;20197;-77
2022/01/16 05:11:24;;;;;;;16.07;8.33;;;;;;;0.11;nan;-23818.13;5051463;28;20175;-74
2022/01/16 05:19:02;;;;;;;15.60;8.30;;;;;;;0.50;nan;-23829.13;5051691;28;20239;-75
2022/01/16 05:21:27;;;;;;;14.03;8.07;;;;;;;0.19;nan;-23820.53;5051226;28;20176;-74
2022/01/16 05:23:53;;;;;;;12.13;8.60;;;;;;;0.14;nan;-23819.13;5051193;28;20255;-77
2022/01/16 05:26:24;;;;;;;15.60;8.37;;;;;;;-0.09;nan;-23812.53;5051299;28;20276;-78
2022/01/16 05:28:50;;;;;;;14.13;8.03;;;;;;;0.37;nan;-23825.69;5033386;28;20608;-75
2022/01/16 05:31:15;;;;;;;13.57;7.80;;;;;;;0.35;nan;-23825.00;5050649;28;20170;-77
2022/01/16 05:33:40;;;;;;;17.73;8.47;;;;;;;-0.33;nan;-23805.66;5033238;28;20198;-77
2022/01/16 05:36:06;;;;;;;17.37;9.03;;;;;;;0.29;nan;-23823.28;5050652;28;20282;-75
2022/01/16 05:38:31;;;;;;;14.10;8.47;;;;;;;0.03;nan;-23815.81;5050581;28;20175;-76
2022/01/16 05:40:56;;;;;;;16.03;8.90;;;;;;;0.03;nan;-23815.97;5051478;28;20263;-75
2022/01/16 05:43:22;;;;;;;16.53;9.10;;;;;;;0.13;nan;-23818.84;5033172;28;20183;-76
2022/01/16 05:45:47;;;;;;;18.30;9.00;;;;;;;-0.50;nan;-23801.06;5049688;28;20257;-77
2022/01/16 05:48:13;;;;;;;17.67;8.83;;;;;;;-0.02;nan;-23814.69;5050985;28;20179;-77
2022/01/16 05:50:38;;;;;;;16.97;9.77;;;;;;;-0.14;nan;-23811.25;5050871;28;20656;-74
2022/01/16 05:53:04;;;;;;;18.80;10.00;;;;;;;-0.22;nan;-23808.81;5049475;28;20230;-74
2022/01/16 05:55:38;;;;;;;16.90;9.70;;;;;;;-0.17;nan;-23810.38;5045444;28;20193;-77
2022/01/16 05:58:08;;;;;;;18.47;9.67;;;;;;;0.01;nan;-23815.41;5051855;28;20212;-75
2022/01/16 06:00:35;;;;;;;15.60;9.10;;;;;;;-0.52;nan;-23800.34;5053700;28;20186;-78
2022/01/16 06:03:00;;;;;;;16.33;9.33;;;;;;;-0.07;nan;-23813.25;5036629;28;20579;-78
2022/01/16 06:05:26;;;;;;;17.37;9.40;;;;;;;0.12;nan;-23818.53;5036436;28;20178;-78
2022/01/16 06:07:56;;;;;;;16.33;8.97;;;;;;;-0.19;nan;-23809.81;5036546;28;20179;-79
2022/01/16 06:10:23;;;;;;;15.17;8.37;;;;;;;0.20;nan;-23820.69;5054849;28;20186;-77
2022/01/16 06:12:49;;;;;;;15.80;8.67;;;;;;;0.20;nan;-23820.69;5054419;28;20623;-78
2022/01/16 06:15:15;;;;;;;19.47;9.43;;;;;;;0.42;nan;-23827.13;5036818;28;20549;-80
2022/01/16 06:17:40;;;;;;;15.23;8.90;;;;;;;0.31;nan;-23824.00;5036442;28;20203;-80
2022/01/16 06:20:06;;;;;;;15.47;8.77;;;;;;;0.04;nan;-23816.13;5036021;28;20329;-79
2022/01/16 06:22:31;;;;;;;16.53;8.50;;;;;;;0.34;nan;-23824.84;5036134;28;20175;-78
2022/01/16 06:24:57;;;;;;;16.47;8.50;;;;;;;0.25;nan;-23822.13;5054013;28;20171;-78
2022/01/16 06:27:22;;;;;;;14.83;7.73;;;;;;;0.84;nan;-23838.88;5054587;28;20687;-81
2022/01/16 06:29:48;;;;;;;13.30;7.93;;;;;;;0.75;nan;-23836.44;5034735;28;20630;-76
2022/01/16 06:32:14;;;;;;;15.30;7.67;;;;;;;1.31;nan;-23852.31;5053849;28;20658;-74
2022/01/16 06:34:39;;;;;;;14.40;8.07;;;;;;;1.28;nan;-23851.44;5035670;28;20279;-76
2022/01/16 06:37:05;;;;;;;14.13;8.40;;;;;;;1.39;nan;-23854.44;5044387;28;20232;-76
2022/01/16 06:39:30;;;;;;;11.83;7.60;;;;;;;1.19;nan;-23848.75;5053121;28;20198;-76
2022/01/16 06:41:56;;;;;;;14.43;8.07;;;;;;;1.30;nan;-23851.88;5035028;28;20180;-78
2022/01/16 06:44:22;;;;;;;15.73;8.73;;;;;;;1.48;nan;-23857.03;5035093;28;20182;-79
2022/01/16 06:46:48;;;;;;;13.83;8.27;;;;;;;1.57;nan;-23859.59;5053776;28;20177;-76
2022/01/16 06:49:13;;;;;;;17.43;9.30;;;;;;;1.84;nan;-23867.03;5052469;28;20648;-75
2022/01/16 06:51:39;;;;;;;14.47;8.70;;;;;;;2.02;nan;-23872.31;5052674;28;20714;-75
2022/01/16 06:54:05;;;;;;;15.87;9.17;;;;;;;2.04;nan;-23872.75;5035367;28;20574;-78
2022/01/16 06:56:31;;;;;;;16.83;9.67;;;;;;;1.91;nan;-23869.16;5053174;28;20187;-77
2022/01/16 06:58:58;;;;;;;14.17;8.63;;;;;;;1.89;nan;-23868.59;5035098;28;20178;-77
2022/01/16 07:01:24;;;;;;;18.27;9.73;;;;;;;1.74;nan;-23864.47;5052825;28;20625;-77
2022/01/16 07:03:49;;;;;;;15.77;8.70;;;;;;;2.07;nan;-23873.75;5052951;28;20191;-76
2022/01/16 07:06:16;;;;;;;19.50;9.20;;;;;;;1.94;nan;-23869.88;5052917;28;20174;-74
2022/01/16 07:08:41;;;;;;;17.03;9.60;;;;;;;1.74;nan;-23864.47;5052913;28;20179;-77
2022/01/16 07:11:07;;;;;;;16.63;9.97;;;;;;;1.99;nan;-23871.31;5034295;28;20201;-79
2022/01/16 07:13:33;;;;;;;15.47;9.33;;;;;;;2.07;nan;-23873.75;5034777;28;20206;-78
2022/01/16 07:15:59;;;;;;;18.23;9.33;;;;;;;2.12;nan;-23875.16;5034708;28;20682;-78
2022/01/16 07:18:24;;;;;;;19.73;10.47;;;;;;;2.39;nan;-23882.75;5052643;28;20224;-78
2022/01/16 07:20:50;;;;;;;18.40;10.20;;;;;;;2.27;nan;-23879.16;5034396;28;20277;-74
2022/01/16 07:23:18;;;;;;;18.80;11.23;;;;;;;2.07;nan;-23873.75;5046232;28;20185;-74
2022/01/16 07:25:44;;;;;;;22.37;12.23;;;;;;;2.40;nan;-23883.03;5034596;28;20218;-76
2022/01/16 07:28:10;;;;;;;20.93;12.07;;;;;;;2.32;nan;-23880.75;5034563;28;20285;-76
2022/01/16 07:30:36;;;;;;;19.53;12.00;;;;;;;2.30;nan;-23880.03;5034499;28;20187;-74
2022/01/16 07:33:06;;;;;;;22.77;12.53;;;;;;;2.72;nan;-23891.88;5052203;28;20170;-74
2022/01/16 07:35:32;;;;;;;21.17;11.67;;;;;;;2.74;nan;-23892.59;5050843;28;20179;-77
2022/01/16 07:37:58;;;;;;;23.97;13.50;;;;;;;2.76;nan;-23893.00;5052454;28;20260;-73
2022/01/16 07:40:24;;;;;;;22.77;12.87;;;;;;;3.04;nan;-23901.00;5052456;28;20213;-74
2022/01/16 07:42:50;;;;;;;21.83;12.87;;;;;;;2.92;nan;-23897.56;5052314;28;20175;-77
2022/01/16 07:45:15;;;;;;;21.43;12.50;;;;;;;2.39;nan;-23882.59;5051971;28;20182;-75
2022/01/16 07:47:41;;;;;;;21.47;12.70;;;;;;;2.75;nan;-23892.72;5052020;28;20255;-75
2022/01/16 07:50:07;;;;;;;21.77;12.90;;;;;;;2.61;nan;-23888.88;5033981;28;20170;-73
2022/01/16 07:52:33;;;;;;;22.03;13.07;;;;;;;2.94;nan;-23898.16;5051943;28;20218;-72
2022/01/16 07:54:58;;;;;;;23.87;13.80;;;;;;;2.52;nan;-23886.44;5052305;28;20217;-74
2022/01/16 07:57:24;;;;;;;21.77;13.37;;;;;;;2.99;nan;-23899.56;5033779;28;20255;-73
2022/01/16 07:59:50;;;;;;;24.07;13.67;;;;;;;2.45;nan;-23884.44;5051691;28;20553;-75
2022/01/16 08:02:16;;;;;;;22.17;13.03;;;;;;;2.87;nan;-23896.28;5051640;28;20182;-77
2022/01/16 08:04:42;;;;;;;25.03;13.47;;;;;;;2.86;nan;-23895.88;5051667;28;20221;-77
2022/01/16 08:07:09;;;;;;;26.23;15.13;;;;;;;3.07;nan;-23901.84;5051825;28;20175;-74
2022/01/16 08:09:36;;;;;;;22.80;12.90;;;;;;;3.41;nan;-23911.56;5051656;28;20185;-75
2022/01/16 08:12:02;;;;;;;24.43;14.20;;;;;;;3.43;nan;-23912.13;5051810;28;20179;-75
2022/01/16 08:14:27;;;;;;;22.20;13.13;;;;;;;3.68;nan;-23918.97;5033367;28;20190;-72
2022/01/16 08:16:56;;;;;;;25.50;14.40;;;;;;;3.14;nan;-23903.72;5052134;28;20217;-75
2022/01/16 08:19:22;;;;;;;24.30;14.43;;;;;;;3.65;nan;-23918.13;5033710;28;20663;-75
2022/01/16 08:21:47;;;;;;;24.23;14.63;;;;;;;3.58;nan;-23916.13;5050373;28;20217;-76
2022/01/16 08:24:13;;;;;;;22.60;13.67;;;;;;;3.49;nan;-23913.84;5033617;28;20182;-76
2022/01/16 08:26:38;;;;;;;24.27;14.10;;;;;;;3.43;nan;-23912.13;5051002;28;20348;-78
2022/01/16 08:29:04;;;;;;;24.60;13.73;;;;;;;3.38;nan;-23910.69;5051738;28;20638;-78
2022/01/16 08:31:29;;;;;;;23.50;13.97;;;;;;;3.74;nan;-23920.69;5032878;28;20181;-74
2022/01/16 08:33:54;;;;;;;25.40;13.60;;;;;;;3.22;nan;-23906.00;5051657;28;20174;-76
2022/01/16 08:36:21;;;;;;;23.97;14.43;;;;;;;4.04;nan;-23929.22;5033505;28;20198;-77
2022/01/16 08:38:46;;;;;;;24.37;14.00;;;;;;;3.76;nan;-23921.38;5033311;28;20181;-76
2022/01/16 08:41:12;;;;;;;28.17;14.30;;;;;;;4.10;nan;-23930.94;5051657;28;20341;-77
2022/01/16 08:43:37;;;;;;;24.90;13.20;;;;;;;4.11;nan;-23931.22;5051184;28;20540;-75
2022/01/16 08:46:03;;;;;;;22.83;13.83;;;;;;;4.20;nan;-23933.78;5051030;28;20193;-76
2022/01/16 08:48:28;;;;;;;26.50;15.57;;;;;;;3.98;nan;-23927.66;5051212;28;20555;-75
2022/01/16 08:50:54;;;;;;;23.73;14.87;;;;;;;4.30;nan;-23936.63;5051317;28;20589;-78
2022/01/16 08:53:20;;;;;;;24.10;14.63;;;;;;;4.06;nan;-23929.78;5029942;28;20301;-76
2022/01/16 08:55:45;;;;;;;23.97;14.73;;;;;;;4.32;nan;-23937.06;5029600;28;20233;-79
2022/01/16 08:58:11;;;;;;;30.80;17.13;;;;;;;4.54;nan;-23943.31;5029652;28;20182;-77
2022/01/16 09:00:36;;;;;;;26.60;15.30;;;;;;;4.56;nan;-23943.88;5024456;28;20198;-75
2022/01/16 09:03:02;;;;;;;24.03;15.07;;;;;;;4.64;nan;-23946.03;5030826;28;20301;-77
2022/01/16 09:05:28;;;;;;;23.87;14.37;;;;;;;4.77;nan;-23949.72;5030565;28;20211;-76
2022/01/16 09:07:54;;;;;;;25.43;14.73;;;;;;;4.45;nan;-23940.91;5029658;28;20183;-79
2022/01/16 09:10:19;;;;;;;22.97;14.50;;;;;;;4.91;nan;-23953.72;5030752;28;20175;-75
2022/01/16 09:12:45;;;;;;;25.63;14.00;;;;;;;4.62;nan;-23945.47;5031225;28;20179;-76
2022/01/16 09:15:12;;;;;;;26.67;14.53;;;;;;;5.08;nan;-23958.53;5024071;28;20219;-78
2022/01/16 09:17:39;;;;;;;22.67;13.53;;;;;;;5.18;nan;-23961.38;5011884;28;20298;-75
2022/01/16 09:20:06;;;;;;;19.33;11.27;;;;;;;4.87;nan;-23952.56;5029533;28;20186;-75
2022/01/16 09:22:31;;;;;;;19.13;11.53;;;;;;;5.20;nan;-23961.81;5030936;28;20191;-74
2022/01/16 09:24:57;;;;;;;19.23;12.27;;;;;;;5.09;nan;-23958.81;5031182;28;20206;-74
2022/01/16 09:27:22;;;;;;;21.70;12.00;;;;;;;5.38;nan;-23966.78;5028907;28;20183;-77
2022/01/16 09:29:48;;;;;;;18.10;12.23;;;;;;;5.52;nan;-23970.91;5029354;28;20642;-75
2022/01/16 09:32:13;;;;;;;20.67;13.00;;;;;;;5.59;nan;-23972.91;5023221;28;20201;-75
2022/01/16 09:34:40;;;;;;;19.80;12.53;;;;;;;5.72;nan;-23976.59;5033932;28;20187;-76
2022/01/16 09:37:09;;;;;;;20.07;12.33;;;;;;;5.85;nan;-23980.16;5034734;28;20686;-76
2022/01/16 09:39:36;;;;;;;22.60;12.83;;;;;;;5.46;nan;-23969.22;5034566;28;20705;-76
2022/01/16 09:42:03;;;;;;;19.30;11.70;;;;;;;5.88;nan;-23980.88;5034171;28;20206;-77
2022/01/16 09:44:29;;;;;;;19.57;11.57;;;;;;;5.90;nan;-23981.44;5034385;28;20207;-75
2022/01/16 09:46:55;;;;;;;19.47;12.40;;;;;;;6.04;nan;-23985.56;5034503;28;20259;-76
2022/01/16 09:49:20;;;;;;;21.40;12.43;;;;;;;5.95;nan;-23982.84;5034515;28;20634;-78
2022/01/16 09:51:46;;;;;;;20.60;12.97;;;;;;;6.00;nan;-23984.28;5038402;28;20222;-75
2022/01/16 09:54:12;;;;;;;19.90;12.97;;;;;;;5.91;nan;-23981.88;5053872;28;20171;-76
2022/01/16 09:56:38;;;;;;;26.33;13.43;;;;;;;5.95;nan;-23983.00;5053709;28;20197;-77
2022/01/16 09:59:03;;;;;;;18.80;12.03;;;;;;;6.17;nan;-23989.25;5054011;28;20178;-77
2022/01/16 10:01:29;;;;;;;19.23;12.20;;;;;;;6.28;nan;-23992.09;5054020;28;20549;-75
2022/01/16 10:03:54;;;;;;;23.33;11.23;;;;;;;6.32;nan;-23993.22;5035541;28;20174;-77
2022/01/16 10:06:22;;;;;;;19.03;11.43;;;;;;;6.47;nan;-23997.47;5053678;28;20643;-77
2022/01/16 10:08:50;;;;;;;18.90;11.17;;;;;;;6.27;nan;-23991.81;5054339;28;20658;-76
2022/01/16 10:11:25;;;;;;;17.23;10.60;;;;;;;6.20;nan;-23990.09;5053781;28;20178;-79
2022/01/16 10:13:58;;;;;;;17.27;10.30;;;;;;;6.44;nan;-23996.63;5035944;28;20213;-78
2022/01/16 10:16:29;;;;;;;17.07;10.50;;;;;;;6.69;nan;-24003.72;5029663;28;20248;-75
2022/01/16 10:18:54;;;;;;;17.80;10.13;;;;;;;6.55;nan;-23999.91;5035725;28;20285;-76
2022/01/16 10:21:33;;;;;;;18.33;10.63;;;;;;;6.27;nan;-23991.94;5035460;28;20273;-78
2022/01/16 10:23:59;;;;;;;13.30;9.40;;;;;;;6.50;nan;-23998.47;5034592;28;20194;-76
2022/01/16 10:26:24;;;;;;;17.67;11.10;;;;;;;6.42;nan;-23996.22;5035494;28;20182;-77
2022/01/16 10:28:51;;;;;;;17.70;10.83;;;;;;;6.62;nan;-24001.75;5035540;28;20228;-75
2022/01/16 10:31:26;;;;;;;16.57;10.77;;;;;;;6.79;nan;-24006.44;5053637;28;20221;-77
2022/01/16 10:33:53;;;;;;;16.67;10.87;;;;;;;6.85;nan;-24008.25;5053651;28;20173;-73
2022/01/16 10:36:37;;;;;;;15.20;9.77;;;;;;;6.84;nan;-24007.84;5053442;28;20264;-76
2022/01/16 10:39:10;;;;;;;18.63;9.47;;;;;;;6.86;nan;-24008.56;5035473;28;20171;-78
2022/01/16 10:41:36;;;;;;;15.13;9.80;;;;;;;6.79;nan;-24006.44;5053497;28;20680;-73
2022/01/16 10:44:02;;;;;;;13.83;9.00;;;;;;;7.22;nan;-24018.47;5053314;28;20183;-74
2022/01/16 10:46:29;;;;;;;15.23;9.40;;;;;;;7.45;nan;-24025.13;5034841;28;20244;-74
2022/01/16 10:49:14;;;;;;;14.83;9.47;;;;;;;7.63;nan;-24030.09;5037014;28;20178;-75
2022/01/16 10:51:39;;;;;;;15.73;10.07;;;;;;;7.63;nan;-24030.09;5052997;28;20214;-77
2022/01/16 10:54:34;;;;;;;14.27;9.20;;;;;;;7.91;nan;-24038.03;5053427;28;20232;-76
2022/01/16 10:57:24;;;;;;;15.90;10.33;;;;;;;7.92;nan;-24038.31;5052797;28;20299;-79
2022/01/16 10:59:50;;;;;;;16.97;10.37;;;;;;;7.53;nan;-24027.41;5032865;28;20186;-73
2022/01/16 11:02:15;;;;;;;16.33;10.37;;;;;;;7.22;nan;-24018.47;5040311;28;20187;-79
2022/01/16 11:04:41;;;;;;;16.73;10.03;;;;;;;7.13;nan;-24015.94;5052938;28;20516;-78
2022/01/16 11:07:06;;;;;;;14.67;9.70;;;;;;;7.55;nan;-24027.84;5028773;28;20197;-77
2022/01/16 11:09:32;;;;;;;16.43;9.70;;;;;;;7.62;nan;-24029.69;5034716;28;20224;-75
2022/01/16 11:12:01;;;;;;;16.13;10.13;;;;;;;7.84;nan;-24035.91;5046403;28;20195;-75
2022/01/16 11:14:28;;;;;;;15.40;9.83;;;;;;;8.03;nan;-24041.28;5052053;28;20557;-77
2022/01/16 11:16:58;;;;;;;14.70;10.00;;;;;;;8.10;nan;-24043.13;5045616;28;20678;-76
2022/01/16 11:19:35;;;;;;;14.63;9.13;;;;;;;8.21;nan;-24046.25;5053009;28;20185;-76
2022/01/16 11:22:08;;;;;;;15.47;9.93;;;;;;;7.92;nan;-24038.19;5022782;28;20194;-75
2022/01/16 11:24:46;;;;;;;15.03;10.47;;;;;;;8.02;nan;-24040.88;5034472;28;20186;-78
2022/01/16 11:27:15;;;;;;;16.47;10.00;;;;;;;7.74;nan;-24033.22;5028036;28;20247;-74
2022/01/16 11:29:41;;;;;;;14.83;9.73;;;;;;;7.33;nan;-24021.75;5052017;28;20183;-77
2022/01/16 11:32:08;;;;;;;14.60;9.80;;;;;;;7.53;nan;-24027.28;5045200;28;20218;-75
2022/01/16 11:34:35;;;;;;;14.97;9.73;;;;;;;7.39;nan;-24023.31;5052150;28;20574;-78
2022/01/16 11:37:01;;;;;;;14.83;9.70;;;;;;;7.98;nan;-24040.03;5044891;28;20303;-77
2022/01/16 11:39:35;;;;;;;15.23;9.57;;;;;;;7.97;nan;-24039.72;5051881;28;20242;-77
2022/01/16 11:42:02;;;;;;;15.07;9.60;;;;;;;7.77;nan;-24034.06;5040543;28;20617;-75
2022/01/16 11:44:29;;;;;;;16.20;9.80;;;;;;;7.85;nan;-24036.19;5052273;28;20261;-77
2022/01/16 11:46:58;;;;;;;15.50;9.37;;;;;;;7.90;nan;-24037.63;5038430;28;20244;-77
2022/01/16 11:49:43;;;;;;;15.60;9.67;;;;;;;8.22;nan;-24046.53;5037511;28;20660;-79
2022/01/16 11:52:15;;;;;;;17.27;8.70;;;;;;;7.94;nan;-24038.88;5024420;28;20230;-74
2022/01/16 11:54:45;;;;;;;15.10;9.77;;;;;;;8.46;nan;-24053.19;5052142;28;20185;-76
2022/01/16 11:57:28;;;;;;;17.30;10.03;;;;;;;8.45;nan;-24053.06;5045188;28;20203;-74
2022/01/16 12:00:14;;;;;;;14.30;9.47;;;;;;;8.55;nan;-24055.75;5035545;28;20171;-75
2022/01/16 12:02:48;;;;;;;16.00;9.40;;;;;;;8.43;nan;-24052.47;5045817;28;20194;-74
2022/01/16 12:05:26;;;;;;;14.73;8.80;;;;;;;8.77;nan;-24061.97;5046798;28;20187;-75
2022/01/16 12:07:54;;;;;;;14.53;8.87;;;;;;;8.46;nan;-24053.19;5051144;28;20261;-56
2022/01/16 12:10:41;;;;;;;17.30;9.47;;;;;;;8.58;nan;-24056.59;5050575;28;20187;-62
2022/01/16 12:13:52;;;;;;;16.73;9.90;;;;;;;9.02;nan;-24068.91;5045952;28;20766;-62
2022/01/16 12:16:38;;;;;;;14.10;9.20;;;;;;;8.79;nan;-24062.66;5021809;28;20211;-67
2022/01/16 12:19:33;;;;;;;13.67;8.80;;;;;;;9.02;nan;-24069.03;5051068;28;20265;-66
2022/01/16 12:21:58;;;;;;;18.20;9.73;;;;;;;8.80;nan;-24062.94;5039118;28;20217;-66
2022/01/16 12:24:42;;;;;;;15.00;9.27;;;;;;;9.04;nan;-24069.47;5051226;28;20205;-66
2022/01/16 12:27:44;;;;;;;12.70;9.20;;;;;;;8.99;nan;-24068.03;5040077;28;20182;-67
2022/01/16 12:30:35;;;;;;;15.93;8.97;;;;;;;8.72;nan;-24060.56;4984268;28;20194;-66
2022/01/16 12:33:15;;;;;;;13.17;8.80;;;;;;;8.98;nan;-24067.91;5048849;28;20179;-67